YPAK weather

CLOSED Pakenham Airport
Pakenham, Victoria, Australia

Public forecast

Using degrees Celsius for public forecast. Weather courtesy of forecast.io.

Closest aviation weather report (METAR) to Pakenham Airport

Closest report is Melbourne Essendon Airport, 35.6 nm (65.9 km) NW. Retrieved 2019/10/20 16:00 UTC (5 minutes ago):

YMEN 201600Z AUTO 23008KT 9999 // OVC022 11/07 Q1027

Closest aviation forecast (TAF) to Pakenham Airport

Closest forecast is Melbourne International Airport, 39.8 nm (73.8 km) NW. Retrieved 2019/10/20 12:38 UTC (3 hours ago):

TAF YMML 201132Z 2012/2118 24010KT 9999 BKN025 BECMG 2023/2024 17014KT CAVOK FM211000 19006KT 9999 BKN012 TEMPO 2014/2018 9999 BKN015 TEMPO 2018/2022 9999 BKN010 TEMPO 2116/2118 9999 BKN009